sensor_id;sensor_type;location;lat;lon;timestamp;P1;durP1;ratioP1;P2;durP2;ratioP2
65461;SDS011;53236;43.666;18.444;2022-11-14T00:02:23;4.23;;;2.73;;
65461;SDS011;53236;43.666;18.444;2022-11-14T00:04:49;4.40;;;2.90;;
65461;SDS011;53236;43.666;18.444;2022-11-14T00:07:14;4.70;;;3.07;;
65461;SDS011;53236;43.666;18.444;2022-11-14T00:09:42;5.60;;;3.60;;
65461;SDS011;53236;43.666;18.444;2022-11-14T00:12:08;5.70;;;3.27;;
65461;SDS011;53236;43.666;18.444;2022-11-14T00:14:34;5.37;;;2.73;;
65461;SDS011;53236;43.666;18.444;2022-11-14T00:17:00;3.77;;;2.70;;
65461;SDS011;53236;43.666;18.444;2022-11-14T00:19:26;4.80;;;3.00;;
65461;SDS011;53236;43.666;18.444;2022-11-14T00:21:52;4.40;;;2.83;;
65461;SDS011;53236;43.666;18.444;2022-11-14T00:24:18;6.73;;;4.00;;
65461;SDS011;53236;43.666;18.444;2022-11-14T00:26:44;5.47;;;3.40;;
65461;SDS011;53236;43.666;18.444;2022-11-14T00:29:10;5.30;;;3.03;;
65461;SDS011;53236;43.666;18.444;2022-11-14T00:31:36;5.40;;;3.30;;
65461;SDS011;53236;43.666;18.444;2022-11-14T00:34:02;5.73;;;3.10;;
65461;SDS011;53236;43.666;18.444;2022-11-14T00:36:28;5.43;;;2.80;;
65461;SDS011;53236;43.666;18.444;2022-11-14T00:38:54;6.43;;;3.00;;
65461;SDS011;53236;43.666;18.444;2022-11-14T00:41:20;4.83;;;2.93;;
65461;SDS011;53236;43.666;18.444;2022-11-14T00:43:45;4.97;;;3.13;;
65461;SDS011;53236;43.666;18.444;2022-11-14T00:46:11;4.37;;;2.83;;
65461;SDS011;53236;43.666;18.444;2022-11-14T00:48:37;6.37;;;3.67;;
65461;SDS011;53236;43.666;18.444;2022-11-14T00:51:03;6.43;;;3.30;;
65461;SDS011;53236;43.666;18.444;2022-11-14T00:53:29;5.30;;;3.33;;
65461;SDS011;53236;43.666;18.444;2022-11-14T00:55:54;6.10;;;2.87;;
65461;SDS011;53236;43.666;18.444;2022-11-14T00:58:20;4.10;;;2.83;;
65461;SDS011;53236;43.666;18.444;2022-11-14T01:00:46;5.83;;;3.50;;
65461;SDS011;53236;43.666;18.444;2022-11-14T01:03:12;4.57;;;3.00;;
65461;SDS011;53236;43.666;18.444;2022-11-14T01:05:41;4.00;;;2.83;;
65461;SDS011;53236;43.666;18.444;2022-11-14T01:08:12;4.33;;;2.87;;
65461;SDS011;53236;43.666;18.444;2022-11-14T01:10:40;4.57;;;2.77;;
65461;SDS011;53236;43.666;18.444;2022-11-14T01:13:06;4.97;;;3.47;;
65461;SDS011;53236;43.666;18.444;2022-11-14T01:15:33;4.30;;;3.00;;
65461;SDS011;53236;43.666;18.444;2022-11-14T01:18:06;5.63;;;3.17;;
65461;SDS011;53236;43.666;18.444;2022-11-14T01:20:32;4.80;;;2.60;;
65461;SDS011;53236;43.666;18.444;2022-11-14T01:22:57;4.60;;;3.13;;
65461;SDS011;53236;43.666;18.444;2022-11-14T01:25:23;4.60;;;3.13;;
65461;SDS011;53236;43.666;18.444;2022-11-14T01:27:49;5.93;;;3.63;;
65461;SDS011;53236;43.666;18.444;2022-11-14T01:30:15;5.90;;;2.87;;
65461;SDS011;53236;43.666;18.444;2022-11-14T01:32:40;5.67;;;3.13;;
65461;SDS011;53236;43.666;18.444;2022-11-14T01:35:06;5.00;;;2.93;;
65461;SDS011;53236;43.666;18.444;2022-11-14T01:37:32;4.73;;;3.07;;
65461;SDS011;53236;43.666;18.444;2022-11-14T01:39:58;4.10;;;3.00;;
65461;SDS011;53236;43.666;18.444;2022-11-14T01:42:23;7.47;;;3.63;;
65461;SDS011;53236;43.666;18.444;2022-11-14T01:44:50;7.17;;;3.50;;
65461;SDS011;53236;43.666;18.444;2022-11-14T01:47:21;6.90;;;3.30;;
65461;SDS011;53236;43.666;18.444;2022-11-14T01:49:51;6.07;;;3.90;;
65461;SDS011;53236;43.666;18.444;2022-11-14T01:52:40;5.43;;;3.10;;
65461;SDS011;53236;43.666;18.444;2022-11-14T01:55:06;5.68;;;3.38;;
65461;SDS011;53236;43.666;18.444;2022-11-14T01:57:41;4.37;;;2.80;;
65461;SDS011;53236;43.666;18.444;2022-11-14T02:00:11;4.67;;;2.87;;
65461;SDS011;53236;43.666;18.444;2022-11-14T02:02:37;5.83;;;3.50;;
65461;SDS011;53236;43.666;18.444;2022-11-14T02:05:05;4.37;;;3.13;;
65461;SDS011;53236;43.666;18.444;2022-11-14T02:07:36;4.70;;;3.40;;
65461;SDS011;53236;43.666;18.444;2022-11-14T02:10:05;5.97;;;3.87;;
65461;SDS011;53236;43.666;18.444;2022-11-14T02:12:33;7.13;;;3.30;;
65461;SDS011;53236;43.666;18.444;2022-11-14T02:14:59;5.23;;;3.30;;
65461;SDS011;53236;43.666;18.444;2022-11-14T02:17:26;5.93;;;3.57;;
65461;SDS011;53236;43.666;18.444;2022-11-14T02:19:53;5.27;;;3.60;;
65461;SDS011;53236;43.666;18.444;2022-11-14T02:22:21;7.43;;;3.40;;
65461;SDS011;53236;43.666;18.444;2022-11-14T02:24:47;4.90;;;3.47;;
65461;SDS011;53236;43.666;18.444;2022-11-14T02:27:13;5.90;;;3.60;;
65461;SDS011;53236;43.666;18.444;2022-11-14T02:29:40;5.03;;;2.90;;
65461;SDS011;53236;43.666;18.444;2022-11-14T02:32:06;6.67;;;3.13;;
65461;SDS011;53236;43.666;18.444;2022-11-14T02:34:32;6.97;;;3.00;;
65461;SDS011;53236;43.666;18.444;2022-11-14T02:36:57;6.27;;;3.93;;
65461;SDS011;53236;43.666;18.444;2022-11-14T02:39:23;8.10;;;3.70;;
65461;SDS011;53236;43.666;18.444;2022-11-14T02:41:49;4.93;;;3.10;;
65461;SDS011;53236;43.666;18.444;2022-11-14T02:44:15;6.10;;;3.33;;
65461;SDS011;53236;43.666;18.444;2022-11-14T02:46:41;5.30;;;3.60;;
65461;SDS011;53236;43.666;18.444;2022-11-14T02:49:07;5.10;;;3.53;;
65461;SDS011;53236;43.666;18.444;2022-11-14T02:51:32;5.03;;;3.03;;
65461;SDS011;53236;43.666;18.444;2022-11-14T02:53:58;5.30;;;3.40;;
65461;SDS011;53236;43.666;18.444;2022-11-14T02:56:24;6.47;;;3.03;;
65461;SDS011;53236;43.666;18.444;2022-11-14T02:58:49;6.07;;;3.60;;
65461;SDS011;53236;43.666;18.444;2022-11-14T03:01:15;5.50;;;3.53;;
65461;SDS011;53236;43.666;18.444;2022-11-14T03:03:41;6.17;;;3.70;;
65461;SDS011;53236;43.666;18.444;2022-11-14T03:06:06;5.17;;;3.50;;
65461;SDS011;53236;43.666;18.444;2022-11-14T03:08:32;6.17;;;3.97;;
65461;SDS011;53236;43.666;18.444;2022-11-14T03:11:04;6.43;;;3.90;;
65461;SDS011;53236;43.666;18.444;2022-11-14T03:13:31;7.10;;;4.07;;
65461;SDS011;53236;43.666;18.444;2022-11-14T03:15:57;7.83;;;4.63;;
65461;SDS011;53236;43.666;18.444;2022-11-14T03:18:32;8.03;;;4.80;;
65461;SDS011;53236;43.666;18.444;2022-11-14T03:21:06;6.93;;;4.03;;
65461;SDS011;53236;43.666;18.444;2022-11-14T03:23:36;6.43;;;4.17;;
65461;SDS011;53236;43.666;18.444;2022-11-14T03:26:03;5.93;;;3.53;;
65461;SDS011;53236;43.666;18.444;2022-11-14T03:28:30;5.87;;;4.10;;
65461;SDS011;53236;43.666;18.444;2022-11-14T03:30:56;5.87;;;3.73;;
65461;SDS011;53236;43.666;18.444;2022-11-14T03:33:22;6.23;;;4.00;;
65461;SDS011;53236;43.666;18.444;2022-11-14T03:35:48;6.63;;;4.13;;
65461;SDS011;53236;43.666;18.444;2022-11-14T03:38:15;6.43;;;4.00;;
65461;SDS011;53236;43.666;18.444;2022-11-14T03:40:41;7.13;;;4.00;;
65461;SDS011;53236;43.666;18.444;2022-11-14T03:43:07;5.43;;;3.30;;
65461;SDS011;53236;43.666;18.444;2022-11-14T03:45:34;7.17;;;4.20;;
65461;SDS011;53236;43.666;18.444;2022-11-14T03:48:01;5.73;;;3.80;;
65461;SDS011;53236;43.666;18.444;2022-11-14T03:50:26;6.53;;;4.13;;
65461;SDS011;53236;43.666;18.444;2022-11-14T03:52:52;6.67;;;4.00;;
65461;SDS011;53236;43.666;18.444;2022-11-14T03:55:17;5.37;;;3.53;;
65461;SDS011;53236;43.666;18.444;2022-11-14T03:57:43;6.70;;;4.43;;
65461;SDS011;53236;43.666;18.444;2022-11-14T04:00:09;7.57;;;5.33;;
65461;SDS011;53236;43.666;18.444;2022-11-14T04:02:36;6.93;;;4.27;;
65461;SDS011;53236;43.666;18.444;2022-11-14T04:05:01;8.17;;;4.70;;
65461;SDS011;53236;43.666;18.444;2022-11-14T04:07:27;7.40;;;4.63;;
65461;SDS011;53236;43.666;18.444;2022-11-14T04:09:53;8.00;;;4.50;;
65461;SDS011;53236;43.666;18.444;2022-11-14T04:12:19;8.30;;;5.03;;
65461;SDS011;53236;43.666;18.444;2022-11-14T04:14:44;7.67;;;4.93;;
65461;SDS011;53236;43.666;18.444;2022-11-14T04:17:10;7.13;;;4.43;;
65461;SDS011;53236;43.666;18.444;2022-11-14T04:19:36;8.87;;;4.90;;
65461;SDS011;53236;43.666;18.444;2022-11-14T04:22:01;7.23;;;4.53;;
65461;SDS011;53236;43.666;18.444;2022-11-14T04:24:27;9.53;;;5.43;;
65461;SDS011;53236;43.666;18.444;2022-11-14T04:26:53;7.13;;;4.83;;
65461;SDS011;53236;43.666;18.444;2022-11-14T04:29:19;9.67;;;5.40;;
65461;SDS011;53236;43.666;18.444;2022-11-14T04:31:44;8.23;;;5.83;;
65461;SDS011;53236;43.666;18.444;2022-11-14T04:34:10;8.27;;;5.60;;
65461;SDS011;53236;43.666;18.444;2022-11-14T04:36:36;7.07;;;4.60;;
65461;SDS011;53236;43.666;18.444;2022-11-14T04:39:01;7.93;;;4.50;;
65461;SDS011;53236;43.666;18.444;2022-11-14T04:41:27;5.53;;;4.00;;
65461;SDS011;53236;43.666;18.444;2022-11-14T04:43:53;11.90;;;4.97;;
65461;SDS011;53236;43.666;18.444;2022-11-14T04:46:18;9.70;;;5.27;;
65461;SDS011;53236;43.666;18.444;2022-11-14T04:48:44;6.53;;;4.00;;
65461;SDS011;53236;43.666;18.444;2022-11-14T04:51:10;8.70;;;5.67;;
65461;SDS011;53236;43.666;18.444;2022-11-14T04:53:35;8.50;;;5.50;;
65461;SDS011;53236;43.666;18.444;2022-11-14T04:56:01;9.00;;;5.70;;
65461;SDS011;53236;43.666;18.444;2022-11-14T04:58:27;14.03;;;6.20;;
65461;SDS011;53236;43.666;18.444;2022-11-14T05:00:52;7.90;;;5.07;;
65461;SDS011;53236;43.666;18.444;2022-11-14T05:03:18;6.57;;;5.00;;
65461;SDS011;53236;43.666;18.444;2022-11-14T05:05:44;6.90;;;4.57;;
65461;SDS011;53236;43.666;18.444;2022-11-14T05:08:10;8.53;;;5.30;;
65461;SDS011;53236;43.666;18.444;2022-11-14T05:10:36;9.10;;;5.47;;
65461;SDS011;53236;43.666;18.444;2022-11-14T05:13:01;9.30;;;5.80;;
65461;SDS011;53236;43.666;18.444;2022-11-14T05:15:27;7.27;;;4.77;;
65461;SDS011;53236;43.666;18.444;2022-11-14T05:17:55;10.50;;;5.17;;
65461;SDS011;53236;43.666;18.444;2022-11-14T05:20:22;9.43;;;5.00;;
65461;SDS011;53236;43.666;18.444;2022-11-14T05:22:51;8.10;;;5.07;;
65461;SDS011;53236;43.666;18.444;2022-11-14T05:25:18;6.87;;;4.90;;
65461;SDS011;53236;43.666;18.444;2022-11-14T05:27:44;8.43;;;5.57;;
65461;SDS011;53236;43.666;18.444;2022-11-14T05:30:10;6.70;;;4.97;;
65461;SDS011;53236;43.666;18.444;2022-11-14T05:32:36;8.97;;;5.50;;
65461;SDS011;53236;43.666;18.444;2022-11-14T05:35:01;17.30;;;13.30;;
65461;SDS011;53236;43.666;18.444;2022-11-14T05:37:28;9.70;;;6.43;;
65461;SDS011;53236;43.666;18.444;2022-11-14T05:39:54;11.03;;;5.90;;
65461;SDS011;53236;43.666;18.444;2022-11-14T05:42:19;9.63;;;6.87;;
65461;SDS011;53236;43.666;18.444;2022-11-14T05:44:45;16.30;;;10.47;;
65461;SDS011;53236;43.666;18.444;2022-11-14T05:47:11;11.00;;;7.57;;
65461;SDS011;53236;43.666;18.444;2022-11-14T05:49:36;10.00;;;6.10;;
65461;SDS011;53236;43.666;18.444;2022-11-14T05:52:02;17.40;;;10.83;;
65461;SDS011;53236;43.666;18.444;2022-11-14T05:54:28;11.57;;;8.17;;
65461;SDS011;53236;43.666;18.444;2022-11-14T05:56:53;25.30;;;16.50;;
65461;SDS011;53236;43.666;18.444;2022-11-14T05:59:19;49.20;;;31.67;;
65461;SDS011;53236;43.666;18.444;2022-11-14T06:01:45;65.27;;;39.63;;
65461;SDS011;53236;43.666;18.444;2022-11-14T06:04:11;37.43;;;23.27;;
65461;SDS011;53236;43.666;18.444;2022-11-14T06:06:39;25.23;;;16.83;;
65461;SDS011;53236;43.666;18.444;2022-11-14T06:09:05;16.63;;;10.00;;
65461;SDS011;53236;43.666;18.444;2022-11-14T06:11:30;13.00;;;7.37;;
65461;SDS011;53236;43.666;18.444;2022-11-14T06:13:56;25.80;;;16.67;;
65461;SDS011;53236;43.666;18.444;2022-11-14T06:16:22;21.13;;;13.43;;
65461;SDS011;53236;43.666;18.444;2022-11-14T06:18:47;13.37;;;10.33;;
65461;SDS011;53236;43.666;18.444;2022-11-14T06:21:14;19.17;;;12.53;;
65461;SDS011;53236;43.666;18.444;2022-11-14T06:23:42;39.83;;;24.67;;
65461;SDS011;53236;43.666;18.444;2022-11-14T06:26:14;65.37;;;41.03;;
65461;SDS011;53236;43.666;18.444;2022-11-14T06:28:51;76.40;;;46.10;;
65461;SDS011;53236;43.666;18.444;2022-11-14T06:31:17;61.73;;;38.40;;
65461;SDS011;53236;43.666;18.444;2022-11-14T06:33:44;53.20;;;33.37;;
65461;SDS011;53236;43.666;18.444;2022-11-14T06:36:11;56.80;;;35.53;;
65461;SDS011;53236;43.666;18.444;2022-11-14T06:38:37;56.07;;;37.93;;
65461;SDS011;53236;43.666;18.444;2022-11-14T06:41:05;57.90;;;39.23;;
65461;SDS011;53236;43.666;18.444;2022-11-14T06:43:33;42.23;;;29.90;;
65461;SDS011;53236;43.666;18.444;2022-11-14T06:46:04;29.37;;;21.77;;
65461;SDS011;53236;43.666;18.444;2022-11-14T06:48:30;12.97;;;7.73;;
65461;SDS011;53236;43.666;18.444;2022-11-14T06:50:56;33.30;;;21.87;;
65461;SDS011;53236;43.666;18.444;2022-11-14T06:53:23;16.67;;;10.63;;
65461;SDS011;53236;43.666;18.444;2022-11-14T06:58:30;9.37;;;6.80;;
65461;SDS011;53236;43.666;18.444;2022-11-14T07:01:04;10.53;;;7.63;;
65461;SDS011;53236;43.666;18.444;2022-11-14T07:03:33;8.15;;;5.22;;
65461;SDS011;53236;43.666;18.444;2022-11-14T07:05:59;7.47;;;4.67;;
65461;SDS011;53236;43.666;18.444;2022-11-14T07:08:25;7.27;;;5.13;;
65461;SDS011;53236;43.666;18.444;2022-11-14T07:10:51;8.63;;;4.83;;
65461;SDS011;53236;43.666;18.444;2022-11-14T07:13:17;7.67;;;4.33;;
65461;SDS011;53236;43.666;18.444;2022-11-14T07:15:49;4.95;;;3.70;;
65461;SDS011;53236;43.666;18.444;2022-11-14T07:18:19;6.53;;;4.10;;
65461;SDS011;53236;43.666;18.444;2022-11-14T07:20:45;6.43;;;4.07;;
65461;SDS011;53236;43.666;18.444;2022-11-14T07:23:11;9.13;;;5.53;;
65461;SDS011;53236;43.666;18.444;2022-11-14T07:25:38;6.00;;;4.43;;
65461;SDS011;53236;43.666;18.444;2022-11-14T07:28:04;7.13;;;4.63;;
65461;SDS011;53236;43.666;18.444;2022-11-14T07:30:30;7.77;;;4.27;;
65461;SDS011;53236;43.666;18.444;2022-11-14T07:32:57;7.73;;;4.67;;
65461;SDS011;53236;43.666;18.444;2022-11-14T07:35:23;8.67;;;5.13;;
65461;SDS011;53236;43.666;18.444;2022-11-14T07:37:50;6.90;;;4.90;;
65461;SDS011;53236;43.666;18.444;2022-11-14T07:40:16;7.23;;;4.40;;
65461;SDS011;53236;43.666;18.444;2022-11-14T07:42:42;5.40;;;3.47;;
65461;SDS011;53236;43.666;18.444;2022-11-14T07:45:09;5.53;;;3.40;;
65461;SDS011;53236;43.666;18.444;2022-11-14T07:47:35;6.15;;;4.07;;
65461;SDS011;53236;43.666;18.444;2022-11-14T07:50:01;10.27;;;4.85;;
65461;SDS011;53236;43.666;18.444;2022-11-14T07:52:27;6.45;;;3.83;;
65461;SDS011;53236;43.666;18.444;2022-11-14T07:54:55;7.40;;;4.30;;
65461;SDS011;53236;43.666;18.444;2022-11-14T07:57:21;7.50;;;4.72;;
65461;SDS011;53236;43.666;18.444;2022-11-14T07:59:46;3.63;;;2.80;;
65461;SDS011;53236;43.666;18.444;2022-11-14T08:02:12;6.97;;;5.05;;
65461;SDS011;53236;43.666;18.444;2022-11-14T08:04:39;5.68;;;3.70;;
65461;SDS011;53236;43.666;18.444;2022-11-14T08:07:05;5.43;;;3.40;;
65461;SDS011;53236;43.666;18.444;2022-11-14T08:09:31;7.70;;;4.30;;
65461;SDS011;53236;43.666;18.444;2022-11-14T08:11:57;5.70;;;3.30;;
65461;SDS011;53236;43.666;18.444;2022-11-14T08:14:23;7.53;;;5.53;;
65461;SDS011;53236;43.666;18.444;2022-11-14T08:16:49;6.87;;;4.27;;
65461;SDS011;53236;43.666;18.444;2022-11-14T08:19:14;6.63;;;3.53;;
65461;SDS011;53236;43.666;18.444;2022-11-14T08:21:41;6.63;;;4.10;;
65461;SDS011;53236;43.666;18.444;2022-11-14T08:24:07;7.53;;;4.60;;
65461;SDS011;53236;43.666;18.444;2022-11-14T08:26:33;14.07;;;5.30;;
65461;SDS011;53236;43.666;18.444;2022-11-14T08:28:59;8.73;;;4.20;;
65461;SDS011;53236;43.666;18.444;2022-11-14T08:31:25;8.70;;;4.33;;
65461;SDS011;53236;43.666;18.444;2022-11-14T08:33:51;6.87;;;3.73;;
65461;SDS011;53236;43.666;18.444;2022-11-14T08:36:17;5.87;;;4.00;;
65461;SDS011;53236;43.666;18.444;2022-11-14T08:38:42;11.90;;;5.30;;
65461;SDS011;53236;43.666;18.444;2022-11-14T08:41:08;11.20;;;5.50;;
65461;SDS011;53236;43.666;18.444;2022-11-14T08:43:34;7.10;;;4.83;;
65461;SDS011;53236;43.666;18.444;2022-11-14T08:46:00;6.23;;;4.73;;
65461;SDS011;53236;43.666;18.444;2022-11-14T08:48:28;6.03;;;3.60;;
65461;SDS011;53236;43.666;18.444;2022-11-14T08:50:55;6.57;;;3.22;;
65461;SDS011;53236;43.666;18.444;2022-11-14T08:53:20;4.25;;;2.45;;
65461;SDS011;53236;43.666;18.444;2022-11-14T08:55:46;4.60;;;2.90;;
65461;SDS011;53236;43.666;18.444;2022-11-14T08:58:13;7.57;;;3.03;;
65461;SDS011;53236;43.666;18.444;2022-11-14T09:00:39;6.47;;;3.30;;
65461;SDS011;53236;43.666;18.444;2022-11-14T09:03:08;5.05;;;3.33;;
65461;SDS011;53236;43.666;18.444;2022-11-14T09:05:37;5.80;;;3.17;;
65461;SDS011;53236;43.666;18.444;2022-11-14T09:08:03;5.15;;;3.05;;
65461;SDS011;53236;43.666;18.444;2022-11-14T09:10:29;5.50;;;2.95;;
65461;SDS011;53236;43.666;18.444;2022-11-14T09:12:55;4.05;;;1.90;;
65461;SDS011;53236;43.666;18.444;2022-11-14T09:15:21;4.15;;;2.55;;
65461;SDS011;53236;43.666;18.444;2022-11-14T09:17:47;6.32;;;2.60;;
65461;SDS011;53236;43.666;18.444;2022-11-14T09:20:13;3.55;;;2.55;;
65461;SDS011;53236;43.666;18.444;2022-11-14T09:22:39;3.25;;;2.10;;
65461;SDS011;53236;43.666;18.444;2022-11-14T09:25:05;4.30;;;2.38;;
65461;SDS011;53236;43.666;18.444;2022-11-14T09:27:31;3.97;;;2.30;;
65461;SDS011;53236;43.666;18.444;2022-11-14T09:29:56;2.63;;;1.92;;
65461;SDS011;53236;43.666;18.444;2022-11-14T09:32:22;7.15;;;2.58;;
65461;SDS011;53236;43.666;18.444;2022-11-14T09:34:48;4.40;;;2.08;;
65461;SDS011;53236;43.666;18.444;2022-11-14T09:37:13;3.65;;;2.65;;
65461;SDS011;53236;43.666;18.444;2022-11-14T09:39:39;3.35;;;2.22;;
65461;SDS011;53236;43.666;18.444;2022-11-14T09:44:54;6.80;;;2.15;;
65461;SDS011;53236;43.666;18.444;2022-11-14T09:47:32;4.45;;;2.80;;
65461;SDS011;53236;43.666;18.444;2022-11-14T09:50:28;4.00;;;2.58;;
65461;SDS011;53236;43.666;18.444;2022-11-14T09:52:58;4.80;;;2.70;;
65461;SDS011;53236;43.666;18.444;2022-11-14T09:55:32;4.18;;;2.92;;
65461;SDS011;53236;43.666;18.444;2022-11-14T09:57:59;5.43;;;2.85;;
65461;SDS011;53236;43.666;18.444;2022-11-14T10:03:24;5.95;;;3.90;;
65461;SDS011;53236;43.666;18.444;2022-11-14T10:06:26;9.50;;;3.95;;
65461;SDS011;53236;43.666;18.444;2022-11-14T10:17:21;9.68;;;5.93;;
65461;SDS011;53236;43.666;18.444;2022-11-14T10:19:54;6.00;;;3.67;;
65461;SDS011;53236;43.666;18.444;2022-11-14T10:33:56;4.70;;;2.70;;
65461;SDS011;53236;43.666;18.444;2022-11-14T10:36:47;4.30;;;3.10;;
65461;SDS011;53236;43.666;18.444;2022-11-14T10:39:43;4.95;;;3.22;;
65461;SDS011;53236;43.666;18.444;2022-11-14T10:45:03;5.18;;;2.80;;
65461;SDS011;53236;43.666;18.444;2022-11-14T10:47:39;5.85;;;2.33;;
65461;SDS011;53236;43.666;18.444;2022-11-14T10:50:17;3.50;;;2.63;;
65461;SDS011;53236;43.666;18.444;2022-11-14T10:52:45;4.68;;;2.72;;
65461;SDS011;53236;43.666;18.444;2022-11-14T10:55:17;3.58;;;2.33;;
65461;SDS011;53236;43.666;18.444;2022-11-14T10:57:46;2.88;;;1.67;;
65461;SDS011;53236;43.666;18.444;2022-11-14T11:00:16;4.57;;;2.17;;
65461;SDS011;53236;43.666;18.444;2022-11-14T11:02:48;4.68;;;2.67;;
65461;SDS011;53236;43.666;18.444;2022-11-14T11:05:16;4.10;;;2.90;;
65461;SDS011;53236;43.666;18.444;2022-11-14T11:07:44;7.90;;;4.82;;
65461;SDS011;53236;43.666;18.444;2022-11-14T11:10:29;17.65;;;9.70;;
65461;SDS011;53236;43.666;18.444;2022-11-14T11:13:26;5.43;;;3.35;;
65461;SDS011;53236;43.666;18.444;2022-11-14T11:16:02;7.18;;;4.15;;
65461;SDS011;53236;43.666;18.444;2022-11-14T11:23:54;6.50;;;3.97;;
65461;SDS011;53236;43.666;18.444;2022-11-14T11:29:14;5.63;;;2.93;;
65461;SDS011;53236;43.666;18.444;2022-11-14T11:34:27;6.15;;;3.35;;
65461;SDS011;53236;43.666;18.444;2022-11-14T11:36:56;12.35;;;2.70;;
65461;SDS011;53236;43.666;18.444;2022-11-14T11:39:27;6.13;;;4.03;;
65461;SDS011;53236;43.666;18.444;2022-11-14T11:41:56;4.70;;;3.23;;
65461;SDS011;53236;43.666;18.444;2022-11-14T11:44:32;4.05;;;2.90;;
65461;SDS011;53236;43.666;18.444;2022-11-14T11:47:07;6.27;;;3.20;;
65461;SDS011;53236;43.666;18.444;2022-11-14T11:49:47;4.63;;;2.83;;
65461;SDS011;53236;43.666;18.444;2022-11-14T11:52:19;6.73;;;3.60;;
65461;SDS011;53236;43.666;18.444;2022-11-14T11:54:59;6.60;;;3.33;;
65461;SDS011;53236;43.666;18.444;2022-11-14T11:57:38;8.73;;;5.13;;
65461;SDS011;53236;43.666;18.444;2022-11-14T12:00:32;16.53;;;11.13;;
65461;SDS011;53236;43.666;18.444;2022-11-14T12:02:58;10.40;;;5.73;;
65461;SDS011;53236;43.666;18.444;2022-11-14T12:08:05;10.57;;;4.70;;
65461;SDS011;53236;43.666;18.444;2022-11-14T12:10:41;10.87;;;5.20;;
65461;SDS011;53236;43.666;18.444;2022-11-14T12:16:10;12.20;;;5.23;;
65461;SDS011;53236;43.666;18.444;2022-11-14T12:24:40;8.73;;;5.37;;
65461;SDS011;53236;43.666;18.444;2022-11-14T12:30:03;6.00;;;3.50;;
65461;SDS011;53236;43.666;18.444;2022-11-14T12:32:43;10.27;;;5.03;;
65461;SDS011;53236;43.666;18.444;2022-11-14T12:35:26;8.03;;;4.33;;
65461;SDS011;53236;43.666;18.444;2022-11-14T12:37:56;10.17;;;5.03;;
65461;SDS011;53236;43.666;18.444;2022-11-14T12:42:57;7.77;;;4.13;;
65461;SDS011;53236;43.666;18.444;2022-11-14T12:48:20;8.77;;;5.00;;
65461;SDS011;53236;43.666;18.444;2022-11-14T12:50:47;9.37;;;5.37;;
65461;SDS011;53236;43.666;18.444;2022-11-14T12:56:15;10.97;;;6.33;;
65461;SDS011;53236;43.666;18.444;2022-11-14T13:18:12;4.83;;;3.30;;
65461;SDS011;53236;43.666;18.444;2022-11-14T13:24:02;8.03;;;4.77;;
65461;SDS011;53236;43.666;18.444;2022-11-14T13:28:54;9.27;;;5.03;;
65461;SDS011;53236;43.666;18.444;2022-11-14T13:31:22;4.93;;;3.40;;
65461;SDS011;53236;43.666;18.444;2022-11-14T13:34:23;9.03;;;5.83;;
65461;SDS011;53236;43.666;18.444;2022-11-14T13:37:09;6.30;;;3.20;;
65461;SDS011;53236;43.666;18.444;2022-11-14T13:43:25;9.67;;;5.30;;
65461;SDS011;53236;43.666;18.444;2022-11-14T13:48:51;6.27;;;4.27;;
65461;SDS011;53236;43.666;18.444;2022-11-14T13:51:38;6.10;;;4.07;;
65461;SDS011;53236;43.666;18.444;2022-11-14T13:54:14;5.00;;;3.40;;
65461;SDS011;53236;43.666;18.444;2022-11-14T14:07:46;5.77;;;3.43;;
65461;SDS011;53236;43.666;18.444;2022-11-14T14:13:21;7.20;;;3.67;;
65461;SDS011;53236;43.666;18.444;2022-11-14T14:18:36;7.10;;;3.57;;
65461;SDS011;53236;43.666;18.444;2022-11-14T14:23:45;6.13;;;2.90;;
65461;SDS011;53236;43.666;18.444;2022-11-14T14:27:13;9.77;;;5.10;;
65461;SDS011;53236;43.666;18.444;2022-11-14T14:32:20;12.60;;;5.60;;
65461;SDS011;53236;43.666;18.444;2022-11-14T14:34:46;9.83;;;4.90;;
65461;SDS011;53236;43.666;18.444;2022-11-14T14:37:19;7.27;;;4.80;;
65461;SDS011;53236;43.666;18.444;2022-11-14T14:40:03;9.13;;;4.53;;
65461;SDS011;53236;43.666;18.444;2022-11-14T14:42:40;6.50;;;3.63;;
65461;SDS011;53236;43.666;18.444;2022-11-14T14:45:14;6.30;;;4.40;;
65461;SDS011;53236;43.666;18.444;2022-11-14T14:47:43;6.23;;;3.90;;
65461;SDS011;53236;43.666;18.444;2022-11-14T14:50:16;7.40;;;4.00;;
65461;SDS011;53236;43.666;18.444;2022-11-14T14:52:45;9.43;;;5.23;;
65461;SDS011;53236;43.666;18.444;2022-11-14T14:55:21;5.80;;;3.60;;
65461;SDS011;53236;43.666;18.444;2022-11-14T14:57:49;6.53;;;3.43;;
65461;SDS011;53236;43.666;18.444;2022-11-14T15:00:16;12.03;;;5.77;;
65461;SDS011;53236;43.666;18.444;2022-11-14T15:02:48;9.83;;;6.07;;
65461;SDS011;53236;43.666;18.444;2022-11-14T15:05:20;10.83;;;5.80;;
65461;SDS011;53236;43.666;18.444;2022-11-14T15:07:47;10.33;;;5.20;;
65461;SDS011;53236;43.666;18.444;2022-11-14T15:10:18;10.60;;;5.30;;
65461;SDS011;53236;43.666;18.444;2022-11-14T15:12:53;8.60;;;4.90;;
65461;SDS011;53236;43.666;18.444;2022-11-14T15:15:21;13.17;;;7.47;;
65461;SDS011;53236;43.666;18.444;2022-11-14T15:17:49;8.40;;;5.20;;
65461;SDS011;53236;43.666;18.444;2022-11-14T15:20:21;5.70;;;3.53;;
65461;SDS011;53236;43.666;18.444;2022-11-14T15:23:05;10.73;;;4.80;;
65461;SDS011;53236;43.666;18.444;2022-11-14T15:25:43;4.40;;;2.73;;
65461;SDS011;53236;43.666;18.444;2022-11-14T15:28:16;7.40;;;3.73;;
65461;SDS011;53236;43.666;18.444;2022-11-14T15:31:02;5.63;;;3.20;;
65461;SDS011;53236;43.666;18.444;2022-11-14T15:33:30;4.30;;;2.73;;
65461;SDS011;53236;43.666;18.444;2022-11-14T15:36:04;6.97;;;3.50;;
65461;SDS011;53236;43.666;18.444;2022-11-14T15:38:30;5.63;;;3.07;;
65461;SDS011;53236;43.666;18.444;2022-11-14T15:43:45;7.90;;;5.07;;
65461;SDS011;53236;43.666;18.444;2022-11-14T15:49:21;6.77;;;4.50;;
65461;SDS011;53236;43.666;18.444;2022-11-14T15:51:55;9.33;;;5.60;;
65461;SDS011;53236;43.666;18.444;2022-11-14T15:56:51;9.47;;;6.37;;
65461;SDS011;53236;43.666;18.444;2022-11-14T15:59:18;5.63;;;3.93;;
65461;SDS011;53236;43.666;18.444;2022-11-14T16:01:45;10.13;;;6.00;;
65461;SDS011;53236;43.666;18.444;2022-11-14T16:04:14;12.67;;;7.80;;
65461;SDS011;53236;43.666;18.444;2022-11-14T16:06:42;8.63;;;5.63;;
65461;SDS011;53236;43.666;18.444;2022-11-14T16:09:15;8.40;;;4.10;;
65461;SDS011;53236;43.666;18.444;2022-11-14T16:11:43;9.73;;;5.30;;
65461;SDS011;53236;43.666;18.444;2022-11-14T16:14:09;7.57;;;3.97;;
65461;SDS011;53236;43.666;18.444;2022-11-14T16:16:35;9.80;;;6.97;;
65461;SDS011;53236;43.666;18.444;2022-11-14T16:19:01;11.37;;;7.77;;
65461;SDS011;53236;43.666;18.444;2022-11-14T16:21:26;6.83;;;4.97;;
65461;SDS011;53236;43.666;18.444;2022-11-14T16:23:52;7.83;;;5.13;;
65461;SDS011;53236;43.666;18.444;2022-11-14T16:26:18;6.20;;;3.60;;
65461;SDS011;53236;43.666;18.444;2022-11-14T16:28:46;11.07;;;6.30;;
65461;SDS011;53236;43.666;18.444;2022-11-14T16:31:12;16.70;;;9.40;;
65461;SDS011;53236;43.666;18.444;2022-11-14T16:33:38;12.87;;;6.40;;
65461;SDS011;53236;43.666;18.444;2022-11-14T16:36:04;15.40;;;8.57;;
65461;SDS011;53236;43.666;18.444;2022-11-14T16:38:30;7.03;;;3.83;;
65461;SDS011;53236;43.666;18.444;2022-11-14T16:40:56;8.60;;;5.27;;
65461;SDS011;53236;43.666;18.444;2022-11-14T16:43:24;16.23;;;7.17;;
65461;SDS011;53236;43.666;18.444;2022-11-14T16:45:49;19.33;;;11.33;;
65461;SDS011;53236;43.666;18.444;2022-11-14T16:48:15;9.13;;;4.53;;